Time;durP1;ratioP1;P1;durP2;ratioP2;P2;SDS_P1;SDS_P2;PMS_P1;PMS_P2;Temp;Humidity;BMP_temperature;BMP_pressure;BME280_temperature;BME280_humidity;BME280_pressure;Samples;Min_cycle;Max_cycle;Signal;HPM_P1;HPM_P2
2023/05/10 00:00:04;;;;;;;0.55;0.30;;;;;;;;;;512620;28;1207;-73
2023/05/10 00:00:20;;;;;;;1.55;0.30;;;;;;;;;;513402;28;1359;-72
2023/05/10 00:00:35;;;;;;;1.90;0.30;;;;;;;;;;516136;28;1065;-72
2023/05/10 00:00:51;;;;;;;1.13;0.30;;;;;;;;;;514114;28;1282;-73
2023/05/10 00:01:06;;;;;;;0.97;0.30;;;;;;;;;;515352;28;1464;-72
2023/05/10 00:01:21;;;;;;;0.47;0.28;;;;;;;;;;515990;28;1088;-71
2023/05/10 00:01:37;;;;;;;0.63;0.27;;;;;;;;;;516430;28;1152;-71
2023/05/10 00:01:52;;;;;;;1.40;0.30;;;;;;;;;;515630;28;1296;-73
2023/05/10 00:02:07;;;;;;;4.25;0.50;;;;;;;;;;513844;28;1518;-71
2023/05/10 00:02:23;;;;;;;3.50;0.33;;;;;;;;;;514560;28;1119;-71
2023/05/10 00:02:38;;;;;;;2.53;0.30;;;;;;;;;;513891;28;1372;-71
2023/05/10 00:02:56;;;;;;;2.00;0.30;;;;;;;;;;512503;28;1178;-73
2023/05/10 00:03:11;;;;;;;1.65;0.40;;;;;;;;;;515336;28;1430;-72
2023/05/10 00:03:27;;;;;;;1.57;0.40;;;;;;;;;;513743;28;1299;-72
2023/05/10 00:03:42;;;;;;;0.65;0.20;;;;;;;;;;513715;28;1273;-72
2023/05/10 00:03:58;;;;;;;0.90;0.20;;;;;;;;;;515779;28;1183;-72
2023/05/10 00:04:13;;;;;;;0.97;0.23;;;;;;;;;;513739;28;1229;-72
2023/05/10 00:04:28;;;;;;;1.30;0.30;;;;;;;;;;515109;28;1135;-73
2023/05/10 00:04:44;;;;;;;1.27;0.30;;;;;;;;;;514662;28;1346;-72
2023/05/10 00:04:59;;;;;;;0.90;0.30;;;;;;;;;;514875;28;1184;-71
2023/05/10 00:05:14;;;;;;;0.60;0.20;;;;;;;;;;513861;28;1304;-71
2023/05/10 00:05:30;;;;;;;1.00;0.23;;;;;;;;;;516597;28;1234;-71
2023/05/10 00:05:45;;;;;;;1.70;0.30;;;;;;;;;;514548;28;1946;-72
2023/05/10 00:06:01;;;;;;;1.00;0.30;;;;;;;;;;515688;28;1117;-72
2023/05/10 00:06:16;;;;;;;0.30;0.30;;;;;;;;;;515031;28;1368;-73
2023/05/10 00:06:31;;;;;;;0.30;0.30;;;;;;;;;;513977;28;1298;-70
2023/05/10 00:06:47;;;;;;;0.70;0.30;;;;;;;;;;513473;28;1334;-73
2023/05/10 00:07:02;;;;;;;1.23;0.40;;;;;;;;;;510590;28;1198;-72
2023/05/10 00:07:17;;;;;;;1.15;0.35;;;;;;;;;;513216;28;1359;-72
2023/05/10 00:07:33;;;;;;;1.13;0.30;;;;;;;;;;513254;28;1435;-73
2023/05/10 00:07:48;;;;;;;1.75;0.30;;;;;;;;;;510493;28;1382;-72
2023/05/10 00:08:03;;;;;;;2.20;0.30;;;;;;;;;;511126;28;1017;-73
2023/05/10 00:08:19;;;;;;;1.43;0.20;;;;;;;;;;512947;28;1269;-71
2023/05/10 00:08:34;;;;;;;0.75;0.30;;;;;;;;;;513014;28;1308;-71
2023/05/10 00:08:50;;;;;;;1.30;0.30;;;;;;;;;;514003;28;1279;-72
2023/05/10 00:09:05;;;;;;;1.40;0.23;;;;;;;;;;513957;28;1187;-72
2023/05/10 00:09:20;;;;;;;1.08;0.20;;;;;;;;;;515386;28;1260;-72
2023/05/10 00:09:36;;;;;;;1.20;0.30;;;;;;;;;;514381;28;918;-73
2023/05/10 00:09:51;;;;;;;1.07;0.30;;;;;;;;;;514992;28;1188;-72
2023/05/10 00:10:07;;;;;;;1.75;0.30;;;;;;;;;;513754;28;1406;-72
2023/05/10 00:10:22;;;;;;;1.53;0.30;;;;;;;;;;514135;28;1369;-72
2023/05/10 00:10:37;;;;;;;0.70;0.22;;;;;;;;;;510367;28;1323;-72
2023/05/10 00:10:53;;;;;;;0.73;0.30;;;;;;;;;;511633;28;1215;-72
2023/05/10 00:11:08;;;;;;;0.40;0.20;;;;;;;;;;511952;28;1346;-72
2023/05/10 00:11:24;;;;;;;1.30;0.30;;;;;;;;;;510937;28;1232;-72
2023/05/10 00:11:39;;;;;;;2.07;0.40;;;;;;;;;;514782;28;1415;-71
2023/05/10 00:11:55;;;;;;;2.23;0.30;;;;;;;;;;516302;28;1379;-72
2023/05/10 00:12:10;;;;;;;1.97;0.30;;;;;;;;;;515214;28;1105;-72
2023/05/10 00:12:25;;;;;;;1.45;0.30;;;;;;;;;;515688;28;1296;-73
2023/05/10 00:12:41;;;;;;;1.70;0.30;;;;;;;;;;515160;28;1385;-73
2023/05/10 00:12:56;;;;;;;1.90;0.30;;;;;;;;;;511522;28;1386;-72
2023/05/10 00:13:11;;;;;;;1.50;0.30;;;;;;;;;;508934;28;1477;-72
2023/05/10 00:13:27;;;;;;;1.63;0.30;;;;;;;;;;511309;28;1201;-72
2023/05/10 00:13:42;;;;;;;2.37;0.33;;;;;;;;;;512630;28;1191;-72
2023/05/10 00:13:57;;;;;;;2.30;0.30;;;;;;;;;;514101;28;1631;-72
2023/05/10 00:14:54;;;;;;;1.47;0.30;;;;;;;;;;514490;28;1108;-73
2023/05/10 00:15:08;;;;;;;1.20;0.30;;;;;;;;;;515485;28;1222;-72
2023/05/10 00:15:24;;;;;;;0.57;0.23;;;;;;;;;;514976;28;1445;-72
2023/05/10 00:15:39;;;;;;;0.80;0.20;;;;;;;;;;516180;28;1445;-72
2023/05/10 00:15:55;;;;;;;1.00;0.30;;;;;;;;;;518244;28;1220;-73
2023/05/10 00:16:11;;;;;;;0.90;0.30;;;;;;;;;;518879;27;1360;-72
2023/05/10 00:16:27;;;;;;;0.50;0.20;;;;;;;;;;519083;28;1501;-73
2023/05/10 00:16:42;;;;;;;0.20;0.20;;;;;;;;;;517292;28;1306;-72
2023/05/10 00:16:57;;;;;;;0.33;0.20;;;;;;;;;;515920;28;1127;-72
2023/05/10 00:17:13;;;;;;;1.20;0.30;;;;;;;;;;516078;28;1271;-73
2023/05/10 00:17:28;;;;;;;1.70;0.30;;;;;;;;;;513965;28;1300;-72
2023/05/10 00:17:43;;;;;;;1.00;0.30;;;;;;;;;;511939;28;1231;-71
2023/05/10 00:17:59;;;;;;;0.50;0.30;;;;;;;;;;512246;28;1420;-72
2023/05/10 00:18:14;;;;;;;1.00;0.32;;;;;;;;;;513026;28;1468;-72
2023/05/10 00:18:29;;;;;;;1.30;0.30;;;;;;;;;;513822;28;1245;-73
2023/05/10 00:18:45;;;;;;;0.60;0.30;;;;;;;;;;512627;28;937;-72
2023/05/10 00:19:00;;;;;;;0.80;0.30;;;;;;;;;;511676;28;1243;-73
2023/05/10 00:19:15;;;;;;;1.10;0.20;;;;;;;;;;514674;28;1159;-71
2023/05/10 00:19:31;;;;;;;0.83;0.20;;;;;;;;;;515087;28;1207;-72
2023/05/10 00:19:46;;;;;;;1.00;0.30;;;;;;;;;;515125;28;1131;-72
2023/05/10 00:20:02;;;;;;;1.73;0.30;;;;;;;;;;516436;28;1268;-72
2023/05/10 00:20:20;;;;;;;1.17;0.30;;;;;;;;;;516394;28;1231;-72
2023/05/10 00:20:35;;;;;;;0.95;0.20;;;;;;;;;;515927;28;985;-73
2023/05/10 00:20:50;;;;;;;2.13;0.30;;;;;;;;;;516450;28;989;-73
2023/05/10 00:21:06;;;;;;;2.20;0.40;;;;;;;;;;516056;28;1295;-72
2023/05/10 00:21:21;;;;;;;1.60;0.40;;;;;;;;;;514701;28;1208;-72
2023/05/10 00:21:37;;;;;;;1.67;0.40;;;;;;;;;;515842;28;1163;-72
2023/05/10 00:21:52;;;;;;;1.33;0.40;;;;;;;;;;515300;28;1305;-72
2023/05/10 00:22:07;;;;;;;1.00;0.40;;;;;;;;;;514294;28;1550;-73
2023/05/10 00:22:23;;;;;;;0.83;0.30;;;;;;;;;;516390;28;1366;-71
2023/05/10 00:22:38;;;;;;;0.38;0.28;;;;;;;;;;515398;28;981;-71
2023/05/10 00:22:54;;;;;;;0.83;0.20;;;;;;;;;;515109;28;1474;-73
2023/05/10 00:23:09;;;;;;;1.10;0.27;;;;;;;;;;514780;28;1200;-72
2023/05/10 00:23:24;;;;;;;1.50;0.30;;;;;;;;;;513988;28;1346;-72
2023/05/10 00:23:40;;;;;;;1.30;0.30;;;;;;;;;;514700;28;1328;-72
2023/05/10 00:23:55;;;;;;;0.90;0.30;;;;;;;;;;515824;28;1092;-72
2023/05/10 00:24:10;;;;;;;1.57;0.30;;;;;;;;;;515259;28;1191;-72
2023/05/10 00:24:26;;;;;;;1.60;0.30;;;;;;;;;;512517;28;1173;-72
2023/05/10 00:24:41;;;;;;;0.93;0.20;;;;;;;;;;511844;28;1546;-72
2023/05/10 00:24:57;;;;;;;0.47;0.27;;;;;;;;;;512935;28;1325;-72
2023/05/10 00:25:12;;;;;;;0.53;0.30;;;;;;;;;;511840;28;1128;-72
2023/05/10 00:25:27;;;;;;;1.00;0.35;;;;;;;;;;512807;28;1187;-72
2023/05/10 00:25:43;;;;;;;0.63;0.30;;;;;;;;;;511203;28;1196;-73
2023/05/10 00:25:58;;;;;;;0.50;0.30;;;;;;;;;;513655;28;1916;-72
2023/05/10 00:26:13;;;;;;;1.63;0.40;;;;;;;;;;512912;28;1508;-73
2023/05/10 00:26:29;;;;;;;1.60;0.30;;;;;;;;;;513135;28;1280;-71
2023/05/10 00:26:44;;;;;;;0.60;0.20;;;;;;;;;;512107;28;1275;-72
2023/05/10 00:27:00;;;;;;;0.73;0.20;;;;;;;;;;513524;28;1184;-72
2023/05/10 00:27:15;;;;;;;0.82;0.20;;;;;;;;;;514396;28;1374;-72
2023/05/10 00:27:31;;;;;;;0.93;0.23;;;;;;;;;;514586;28;1397;-72
2023/05/10 00:27:46;;;;;;;1.25;0.25;;;;;;;;;;513555;28;1355;-71
2023/05/10 00:28:01;;;;;;;0.90;0.20;;;;;;;;;;513513;28;1239;-73
2023/05/10 00:28:17;;;;;;;0.90;0.20;;;;;;;;;;514324;28;1491;-73
2023/05/10 00:28:32;;;;;;;1.20;0.20;;;;;;;;;;514501;28;1131;-73
2023/05/10 00:28:47;;;;;;;0.90;0.20;;;;;;;;;;513278;28;1311;-73
2023/05/10 00:29:03;;;;;;;0.77;0.20;;;;;;;;;;513512;28;1324;-73
2023/05/10 00:29:18;;;;;;;1.30;0.30;;;;;;;;;;511092;28;1226;-72
2023/05/10 00:29:33;;;;;;;1.40;0.40;;;;;;;;;;512129;28;1329;-72
2023/05/10 00:29:49;;;;;;;0.60;0.30;;;;;;;;;;513188;28;1271;-73
2023/05/10 00:30:07;;;;;;;1.33;0.30;;;;;;;;;;511465;28;1716;-73
2023/05/10 00:30:23;;;;;;;2.08;0.40;;;;;;;;;;512471;28;1003;-72
2023/05/10 00:30:38;;;;;;;0.88;0.32;;;;;;;;;;512767;28;1374;-72
2023/05/10 00:30:54;;;;;;;0.60;0.20;;;;;;;;;;510931;28;1313;-73
2023/05/10 00:31:09;;;;;;;0.93;0.30;;;;;;;;;;511857;28;1358;-72
2023/05/10 00:31:25;;;;;;;0.87;0.30;;;;;;;;;;513052;28;1235;-71
2023/05/10 00:31:40;;;;;;;1.15;0.30;;;;;;;;;;512696;28;1434;-72
2023/05/10 00:31:56;;;;;;;1.80;0.30;;;;;;;;;;514209;28;1437;-72
2023/05/10 00:32:13;;;;;;;1.10;0.22;;;;;;;;;;515832;28;1334;-72
2023/05/10 00:32:28;;;;;;;0.50;0.20;;;;;;;;;;516420;28;1085;-73
2023/05/10 00:32:44;;;;;;;0.70;0.20;;;;;;;;;;516059;28;1336;-71
2023/05/10 00:33:00;;;;;;;2.40;0.30;;;;;;;;;;516069;28;1550;-72
2023/05/10 00:33:15;;;;;;;2.03;0.30;;;;;;;;;;515777;28;915;-72
2023/05/10 00:33:30;;;;;;;0.60;0.30;;;;;;;;;;517020;28;1361;-72
2023/05/10 00:33:46;;;;;;;0.50;0.20;;;;;;;;;;515764;28;1621;-72
2023/05/10 00:34:01;;;;;;;0.57;0.20;;;;;;;;;;515353;28;1033;-72
2023/05/10 00:34:16;;;;;;;0.50;0.20;;;;;;;;;;513787;28;1355;-72
2023/05/10 00:34:32;;;;;;;0.37;0.20;;;;;;;;;;511667;28;1274;-72
2023/05/10 00:34:47;;;;;;;1.00;0.30;;;;;;;;;;516750;28;1673;-72
2023/05/10 00:35:02;;;;;;;1.37;0.30;;;;;;;;;;515383;28;1279;-72
2023/05/10 00:35:18;;;;;;;0.70;0.23;;;;;;;;;;512782;28;1501;-72
2023/05/10 00:35:33;;;;;;;1.20;0.30;;;;;;;;;;514749;28;1385;-72
2023/05/10 00:35:49;;;;;;;1.70;0.30;;;;;;;;;;517209;28;1451;-72
2023/05/10 00:36:07;;;;;;;0.77;0.30;;;;;;;;;;515520;28;1220;-71
2023/05/10 00:36:22;;;;;;;0.50;0.30;;;;;;;;;;514781;28;1033;-71
2023/05/10 00:36:38;;;;;;;2.00;0.30;;;;;;;;;;512878;28;1483;-72
2023/05/10 00:36:53;;;;;;;3.00;0.30;;;;;;;;;;513493;28;1523;-73
2023/05/10 00:37:11;;;;;;;1.33;0.27;;;;;;;;;;514067;28;1306;-72
2023/05/10 00:37:27;;;;;;;0.35;0.20;;;;;;;;;;513794;28;1407;-72
2023/05/10 00:37:43;;;;;;;0.60;0.30;;;;;;;;;;513965;28;1287;-72
2023/05/10 00:37:58;;;;;;;1.10;0.30;;;;;;;;;;513437;28;1440;-71
2023/05/10 00:38:14;;;;;;;0.60;0.20;;;;;;;;;;514121;28;1001;-72
2023/05/10 00:38:29;;;;;;;0.50;0.20;;;;;;;;;;514725;28;1363;-72
2023/05/10 00:38:44;;;;;;;0.70;0.30;;;;;;;;;;511460;28;1264;-71
2023/05/10 00:39:00;;;;;;;0.70;0.30;;;;;;;;;;511053;28;1668;-72
2023/05/10 00:39:15;;;;;;;1.90;0.30;;;;;;;;;;511847;28;1275;-72
2023/05/10 00:39:31;;;;;;;2.33;0.30;;;;;;;;;;512606;28;1209;-74
2023/05/10 00:39:46;;;;;;;1.70;0.30;;;;;;;;;;512493;28;1228;-72
2023/05/10 00:40:01;;;;;;;0.97;0.20;;;;;;;;;;512115;28;1167;-71
2023/05/10 00:40:16;;;;;;;1.03;0.20;;;;;;;;;;512194;28;1256;-72
2023/05/10 00:40:32;;;;;;;1.60;0.30;;;;;;;;;;512026;28;1677;-72
2023/05/10 00:41:08;;;;;;;1.10;0.30;;;;;;;;;;513068;28;1823;-73
2023/05/10 00:41:23;;;;;;;0.30;0.28;;;;;;;;;;513146;28;1471;-72
2023/05/10 00:41:38;;;;;;;0.20;0.20;;;;;;;;;;512775;28;1305;-72
2023/05/10 00:41:54;;;;;;;0.57;0.17;;;;;;;;;;511898;28;1202;-74
2023/05/10 00:42:09;;;;;;;1.98;0.20;;;;;;;;;;510737;28;1255;-71
2023/05/10 00:42:25;;;;;;;1.63;0.20;;;;;;;;;;512176;28;1323;-73
2023/05/10 00:42:40;;;;;;;0.90;0.30;;;;;;;;;;510688;28;1328;-72
2023/05/10 00:42:56;;;;;;;0.50;0.30;;;;;;;;;;510669;28;1124;-72
2023/05/10 00:43:11;;;;;;;0.50;0.20;;;;;;;;;;511571;28;1388;-72
2023/05/10 00:43:27;;;;;;;1.00;0.30;;;;;;;;;;512844;28;1208;-72
2023/05/10 00:43:42;;;;;;;0.98;0.30;;;;;;;;;;513866;28;1744;-72
2023/05/10 00:43:57;;;;;;;1.00;0.30;;;;;;;;;;513331;28;953;-71
2023/05/10 00:44:14;;;;;;;1.20;0.30;;;;;;;;;;513702;28;1243;-73
2023/05/10 00:44:30;;;;;;;1.52;0.30;;;;;;;;;;513671;28;1509;-72
2023/05/10 00:44:46;;;;;;;1.27;0.30;;;;;;;;;;515058;28;1479;-72
2023/05/10 00:45:02;;;;;;;0.90;0.30;;;;;;;;;;514103;28;1263;-73
2023/05/10 00:45:17;;;;;;;1.08;0.22;;;;;;;;;;512114;28;1216;-72
2023/05/10 00:45:33;;;;;;;0.77;0.20;;;;;;;;;;516221;28;1045;-72
2023/05/10 00:45:48;;;;;;;0.80;0.20;;;;;;;;;;516059;28;1949;-73
2023/05/10 00:46:04;;;;;;;0.90;0.30;;;;;;;;;;515607;28;1188;-72
2023/05/10 00:46:20;;;;;;;0.82;0.40;;;;;;;;;;514957;28;1272;-72
2023/05/10 00:46:35;;;;;;;1.48;0.30;;;;;;;;;;515527;28;1489;-72
2023/05/10 00:46:51;;;;;;;1.20;0.20;;;;;;;;;;515660;28;1258;-73
2023/05/10 00:47:06;;;;;;;1.52;0.30;;;;;;;;;;515851;28;1360;-72
2023/05/10 00:47:22;;;;;;;1.57;0.30;;;;;;;;;;517303;28;1332;-73
2023/05/10 00:47:37;;;;;;;0.80;0.30;;;;;;;;;;516666;28;1251;-72
2023/05/10 00:47:54;;;;;;;1.27;0.30;;;;;;;;;;517060;28;1152;-71
2023/05/10 00:48:10;;;;;;;0.70;0.22;;;;;;;;;;514769;28;1489;-73
2023/05/10 00:48:25;;;;;;;0.47;0.20;;;;;;;;;;515445;28;1013;-72
2023/05/10 00:48:40;;;;;;;0.60;0.20;;;;;;;;;;514122;28;1448;-72
2023/05/10 00:48:56;;;;;;;0.87;0.30;;;;;;;;;;515656;28;1180;-72
2023/05/10 00:49:11;;;;;;;0.80;0.40;;;;;;;;;;514235;28;1096;-72
2023/05/10 00:49:27;;;;;;;0.80;0.30;;;;;;;;;;514962;28;1299;-72
2023/05/10 00:49:43;;;;;;;0.73;0.20;;;;;;;;;;516686;28;1470;-72
2023/05/10 00:50:00;;;;;;;0.43;0.20;;;;;;;;;;517256;28;1097;-72
2023/05/10 00:50:15;;;;;;;0.70;0.20;;;;;;;;;;517210;28;1326;-72
2023/05/10 00:50:32;;;;;;;1.20;0.27;;;;;;;;;;518555;28;1211;-72
2023/05/10 00:50:57;;;;;;;0.82;0.30;;;;;;;;;;518259;28;1452;-72
2023/05/10 00:51:13;;;;;;;0.32;0.30;;;;;;;;;;515765;28;1415;-73
2023/05/10 00:51:28;;;;;;;1.13;0.30;;;;;;;;;;515588;28;1418;-71
2023/05/10 00:51:44;;;;;;;1.10;0.30;;;;;;;;;;515158;28;1448;-72
2023/05/10 00:52:01;;;;;;;0.73;0.30;;;;;;;;;;514239;28;1476;-72
2023/05/10 00:52:17;;;;;;;1.20;0.38;;;;;;;;;;513613;28;1513;-72
2023/05/10 00:52:32;;;;;;;0.77;0.38;;;;;;;;;;513262;28;1508;-72
2023/05/10 00:52:48;;;;;;;1.07;0.40;;;;;;;;;;513786;28;1368;-72
2023/05/10 00:53:03;;;;;;;1.48;0.40;;;;;;;;;;515582;28;1357;-72
2023/05/10 00:53:19;;;;;;;0.97;0.40;;;;;;;;;;515800;28;1322;-72
2023/05/10 00:53:34;;;;;;;1.00;0.40;;;;;;;;;;513146;28;1267;-73
2023/05/10 00:53:51;;;;;;;1.10;0.30;;;;;;;;;;514594;28;1354;-73
2023/05/10 00:54:07;;;;;;;0.60;0.22;;;;;;;;;;513429;28;1219;-71
2023/05/10 00:54:22;;;;;;;1.00;0.20;;;;;;;;;;511245;28;1349;-72
2023/05/10 00:54:40;;;;;;;1.40;0.30;;;;;;;;;;511383;28;1297;-72
2023/05/10 00:54:56;;;;;;;1.00;0.30;;;;;;;;;;512145;28;1121;-72
2023/05/10 00:55:12;;;;;;;1.40;0.30;;;;;;;;;;513046;28;951;-72
2023/05/10 00:55:27;;;;;;;1.40;0.30;;;;;;;;;;514783;28;1619;-72
2023/05/10 00:55:43;;;;;;;0.50;0.30;;;;;;;;;;515743;28;1281;-73
2023/05/10 00:55:59;;;;;;;0.63;0.30;;;;;;;;;;514531;28;1394;-72
2023/05/10 00:56:15;;;;;;;0.90;0.20;;;;;;;;;;513379;28;1374;-71
2023/05/10 00:56:30;;;;;;;0.68;0.20;;;;;;;;;;513427;28;1266;-72
2023/05/10 00:56:48;;;;;;;0.70;0.30;;;;;;;;;;513692;28;1226;-71
2023/05/10 00:57:03;;;;;;;0.93;0.30;;;;;;;;;;512886;28;1354;-72
2023/05/10 00:57:19;;;;;;;0.70;0.22;;;;;;;;;;513487;28;1341;-73
2023/05/10 00:57:34;;;;;;;0.50;0.30;;;;;;;;;;515128;28;1369;-72
2023/05/10 00:57:50;;;;;;;0.80;0.30;;;;;;;;;;514791;28;1351;-72
2023/05/10 00:58:05;;;;;;;1.00;0.30;;;;;;;;;;512813;28;1189;-72
2023/05/10 00:58:20;;;;;;;1.50;0.30;;;;;;;;;;511484;28;1327;-72
2023/05/10 00:58:36;;;;;;;1.90;0.30;;;;;;;;;;511879;28;1280;-72
2023/05/10 00:58:51;;;;;;;1.10;0.23;;;;;;;;;;511483;28;1351;-72
2023/05/10 00:59:09;;;;;;;0.87;0.20;;;;;;;;;;512124;28;1318;-72
2023/05/10 01:00:21;;;;;;;0.55;0.20;;;;;;;;;;508046;28;1160;-72
2023/05/10 01:00:38;;;;;;;0.70;0.25;;;;;;;;;;509904;28;1319;-72
2023/05/10 01:00:57;;;;;;;0.90;0.30;;;;;;;;;;507754;28;1639;-72
2023/05/10 01:01:13;;;;;;;0.98;0.30;;;;;;;;;;508169;28;1371;-72
2023/05/10 01:01:28;;;;;;;1.20;0.30;;;;;;;;;;512565;28;1268;-72
2023/05/10 01:01:47;;;;;;;1.50;0.22;;;;;;;;;;516315;28;1071;-72
2023/05/10 01:02:02;;;;;;;0.68;0.28;;;;;;;;;;514152;28;1484;-73
2023/05/10 01:02:18;;;;;;;0.80;0.30;;;;;;;;;;514411;28;1292;-72
2023/05/10 01:02:36;;;;;;;1.37;0.40;;;;;;;;;;514529;28;1414;-72
2023/05/10 01:02:52;;;;;;;1.30;0.40;;;;;;;;;;516468;28;1587;-72
2023/05/10 01:03:08;;;;;;;0.73;0.20;;;;;;;;;;515743;28;1227;-72
2023/05/10 01:03:24;;;;;;;0.67;0.20;;;;;;;;;;515129;28;1338;-72
2023/05/10 01:03:39;;;;;;;0.65;0.22;;;;;;;;;;515817;28;1425;-72
2023/05/10 01:03:55;;;;;;;0.90;0.30;;;;;;;;;;515063;28;1361;-73
2023/05/10 01:04:12;;;;;;;1.77;0.30;;;;;;;;;;515693;28;1057;-72
2023/05/10 01:04:28;;;;;;;1.40;0.20;;;;;;;;;;513370;28;1021;-73
2023/05/10 01:04:43;;;;;;;0.80;0.20;;;;;;;;;;513121;28;1097;-72
2023/05/10 01:04:58;;;;;;;1.07;0.30;;;;;;;;;;512730;28;1259;-71
2023/05/10 01:05:14;;;;;;;0.63;0.20;;;;;;;;;;512623;28;1285;-72
2023/05/10 01:05:30;;;;;;;0.93;0.20;;;;;;;;;;512595;28;1428;-71
2023/05/10 01:05:45;;;;;;;1.98;0.20;;;;;;;;;;512940;28;1251;-71
2023/05/10 01:06:00;;;;;;;1.53;0.20;;;;;;;;;;511395;28;1919;-71
2023/05/10 01:06:16;;;;;;;1.00;0.30;;;;;;;;;;511732;28;1394;-70
2023/05/10 01:06:32;;;;;;;1.47;0.30;;;;;;;;;;511372;28;1157;-72
2023/05/10 01:06:47;;;;;;;1.80;0.30;;;;;;;;;;513937;28;1291;-72
2023/05/10 01:07:03;;;;;;;0.90;0.20;;;;;;;;;;514123;28;1385;-71
2023/05/10 01:07:18;;;;;;;0.70;0.20;;;;;;;;;;514517;28;1412;-72
2023/05/10 01:07:33;;;;;;;1.40;0.30;;;;;;;;;;512869;28;1414;-71
2023/05/10 01:07:49;;;;;;;1.02;0.30;;;;;;;;;;514384;28;1446;-71
2023/05/10 01:08:04;;;;;;;0.60;0.30;;;;;;;;;;514420;28;1262;-71
2023/05/10 01:08:20;;;;;;;0.98;0.30;;;;;;;;;;515324;28;1294;-71
2023/05/10 01:08:36;;;;;;;0.97;0.30;;;;;;;;;;513849;28;1361;-71
2023/05/10 01:08:51;;;;;;;0.65;0.25;;;;;;;;;;514904;28;925;-71
2023/05/10 01:09:07;;;;;;;1.60;0.30;;;;;;;;;;516253;28;1386;-72
2023/05/10 01:09:22;;;;;;;1.63;0.30;;;;;;;;;;513354;28;1118;-71
2023/05/10 01:09:40;;;;;;;0.75;0.30;;;;;;;;;;515450;28;1274;-71
2023/05/10 01:09:56;;;;;;;0.55;0.30;;;;;;;;;;517214;28;1440;-71
2023/05/10 01:10:12;;;;;;;0.60;0.20;;;;;;;;;;514957;28;1234;-71
2023/05/10 01:10:27;;;;;;;1.52;0.30;;;;;;;;;;516152;28;1063;-72
2023/05/10 01:10:43;;;;;;;2.20;0.40;;;;;;;;;;514910;28;1488;-73
2023/05/10 01:10:58;;;;;;;1.45;0.32;;;;;;;;;;516037;28;1316;-72
2023/05/10 01:11:14;;;;;;;1.23;0.30;;;;;;;;;;512611;28;1217;-71
2023/05/10 01:11:29;;;;;;;1.05;0.30;;;;;;;;;;512606;28;1270;-71
2023/05/10 01:11:45;;;;;;;1.00;0.20;;;;;;;;;;513101;28;1302;-71
2023/05/10 01:12:20;;;;;;;1.13;0.28;;;;;;;;;;512247;28;1278;-71
2023/05/10 01:12:37;;;;;;;0.82;0.30;;;;;;;;;;513015;28;1383;-72
2023/05/10 01:12:53;;;;;;;0.50;0.25;;;;;;;;;;514379;28;1983;-72
2023/05/10 01:13:09;;;;;;;0.40;0.20;;;;;;;;;;514830;28;908;-72
2023/05/10 01:13:43;;;;;;;0.63;0.30;;;;;;;;;;515479;28;1136;-71
2023/05/10 01:13:58;;;;;;;0.82;0.30;;;;;;;;;;516316;28;1457;-72
2023/05/10 01:14:14;;;;;;;0.97;0.23;;;;;;;;;;514248;28;1371;-72
2023/05/10 01:14:30;;;;;;;0.68;0.28;;;;;;;;;;514552;28;1397;-72
2023/05/10 01:14:46;;;;;;;0.23;0.20;;;;;;;;;;516713;28;1480;-72
2023/05/10 01:15:02;;;;;;;0.20;0.20;;;;;;;;;;517979;28;1084;-72
2023/05/10 01:15:17;;;;;;;0.40;0.30;;;;;;;;;;517998;28;1545;-72
2023/05/10 01:15:33;;;;;;;0.95;0.30;;;;;;;;;;515963;28;1222;-72
2023/05/10 01:15:49;;;;;;;1.00;0.30;;;;;;;;;;515970;28;1286;-73
2023/05/10 01:16:07;;;;;;;1.65;0.30;;;;;;;;;;515528;28;1211;-72
2023/05/10 01:16:23;;;;;;;1.40;0.30;;;;;;;;;;515961;28;1569;-71
2023/05/10 01:16:40;;;;;;;0.90;0.30;;;;;;;;;;513197;28;1656;-71
2023/05/10 01:16:56;;;;;;;1.67;0.30;;;;;;;;;;512296;28;1384;-71
2023/05/10 01:17:12;;;;;;;1.33;0.22;;;;;;;;;;513549;28;1356;-71
2023/05/10 01:17:27;;;;;;;1.48;0.20;;;;;;;;;;513308;28;1140;-71
2023/05/10 01:17:44;;;;;;;1.90;0.30;;;;;;;;;;512359;28;1499;-72
2023/05/10 01:18:00;;;;;;;1.50;0.30;;;;;;;;;;509847;28;1583;-72
2023/05/10 01:18:16;;;;;;;1.35;0.30;;;;;;;;;;512007;28;1256;-72
2023/05/10 01:18:33;;;;;;;1.20;0.30;;;;;;;;;;514668;28;1380;-71
2023/05/10 01:18:48;;;;;;;0.52;0.28;;;;;;;;;;513859;28;1505;-72
2023/05/10 01:19:07;;;;;;;0.85;0.20;;;;;;;;;;513863;28;1315;-71
2023/05/10 01:19:23;;;;;;;1.38;0.30;;;;;;;;;;509862;28;1437;-71
2023/05/10 01:19:38;;;;;;;1.65;0.30;;;;;;;;;;514004;28;1285;-71
2023/05/10 01:19:54;;;;;;;1.50;0.40;;;;;;;;;;515023;28;1276;-70
2023/05/10 01:20:10;;;;;;;1.40;0.33;;;;;;;;;;515262;28;997;-71
2023/05/10 01:20:28;;;;;;;0.90;0.20;;;;;;;;;;512850;28;1234;-71
2023/05/10 01:20:50;;;;;;;1.30;0.20;;;;;;;;;;514169;28;1457;-71
2023/05/10 01:21:15;;;;;;;1.40;0.20;;;;;;;;;;514893;28;964;-72
2023/05/10 01:21:40;;;;;;;1.55;0.35;;;;;;;;;;512138;28;1482;-72
2023/05/10 01:22:14;;;;;;;3.30;0.40;;;;;;;;;;513390;28;1512;-71
2023/05/10 01:22:29;;;;;;;0.90;0.30;;;;;;;;;;513789;28;1244;-72
2023/05/10 01:23:03;;;;;;;0.93;0.30;;;;;;;;;;514184;28;1212;-72
2023/05/10 01:23:33;;;;;;;1.42;0.30;;;;;;;;;;514012;28;1322;-71
2023/05/10 01:23:50;;;;;;;0.90;0.30;;;;;;;;;;513718;28;1591;-72
2023/05/10 01:24:15;;;;;;;0.40;0.30;;;;;;;;;;513250;28;1479;-72
2023/05/10 01:24:42;;;;;;;1.90;0.32;;;;;;;;;;516082;28;1546;-70
2023/05/10 01:25:06;;;;;;;0.68;0.30;;;;;;;;;;514833;28;1396;-71
2023/05/10 01:25:21;;;;;;;0.55;0.30;;;;;;;;;;515510;28;1329;-71
2023/05/10 01:25:55;;;;;;;0.20;0.20;;;;;;;;;;513976;28;1424;-71
2023/05/10 01:26:15;;;;;;;1.23;0.35;;;;;;;;;;515727;28;973;-71
2023/05/10 01:26:49;;;;;;;1.70;0.30;;;;;;;;;;514556;28;1374;-71
2023/05/10 01:27:17;;;;;;;1.40;0.30;;;;;;;;;;515661;28;1128;-72
2023/05/10 01:27:35;;;;;;;0.82;0.20;;;;;;;;;;517024;28;935;-71
2023/05/10 01:27:50;;;;;;;0.70;0.20;;;;;;;;;;517509;28;1206;-71
2023/05/10 01:28:09;;;;;;;1.00;0.30;;;;;;;;;;517512;27;1372;-70
2023/05/10 01:28:43;;;;;;;1.05;0.35;;;;;;;;;;516600;28;1410;-71
2023/05/10 01:29:10;;;;;;;2.05;0.30;;;;;;;;;;515835;28;1493;-72
2023/05/10 01:29:48;;;;;;;1.50;0.30;;;;;;;;;;516603;28;1260;-72
2023/05/10 01:30:22;;;;;;;0.77;0.30;;;;;;;;;;516965;28;1485;-72
2023/05/10 01:30:43;;;;;;;0.45;0.30;;;;;;;;;;518139;28;969;-72
2023/05/10 01:31:07;;;;;;;0.88;0.30;;;;;;;;;;520341;27;955;-72
2023/05/10 01:31:29;;;;;;;1.30;0.30;;;;;;;;;;518260;28;1577;-71
2023/05/10 01:32:03;;;;;;;0.93;0.30;;;;;;;;;;517811;28;1318;-72
2023/05/10 01:32:27;;;;;;;0.80;0.28;;;;;;;;;;520495;27;1117;-72
2023/05/10 01:32:46;;;;;;;0.40;0.25;;;;;;;;;;519630;27;1375;-71
2023/05/10 01:33:07;;;;;;;0.40;0.30;;;;;;;;;;517814;28;1420;-72
2023/05/10 01:33:58;;;;;;;0.90;0.30;;;;;;;;;;517616;28;1151;-71
2023/05/10 01:34:19;;;;;;;0.93;0.30;;;;;;;;;;513763;28;1503;-72
2023/05/10 01:35:13;;;;;;;0.55;0.20;;;;;;;;;;514939;28;1441;-72
2023/05/10 01:35:43;;;;;;;0.90;0.30;;;;;;;;;;516420;28;1265;-72
2023/05/10 01:36:03;;;;;;;1.85;0.30;;;;;;;;;;518382;28;1309;-71
2023/05/10 01:36:18;;;;;;;0.82;0.30;;;;;;;;;;519864;27;1022;-72
2023/05/10 01:36:43;;;;;;;0.40;0.30;;;;;;;;;;521151;27;1434;-72
2023/05/10 01:37:07;;;;;;;1.50;0.40;;;;;;;;;;517451;28;1176;-72
2023/05/10 01:37:31;;;;;;;0.30;0.20;;;;;;;;;;517878;28;1289;-71
2023/05/10 01:38:05;;;;;;;0.90;0.30;;;;;;;;;;518389;28;1400;-71
2023/05/10 01:38:32;;;;;;;0.77;0.30;;;;;;;;;;516153;28;1417;-72
2023/05/10 01:38:53;;;;;;;1.20;0.30;;;;;;;;;;516159;28;1412;-71
2023/05/10 01:39:12;;;;;;;0.90;0.30;;;;;;;;;;516964;28;1314;-72
2023/05/10 01:39:46;;;;;;;0.93;0.30;;;;;;;;;;517402;28;1148;-73
2023/05/10 01:40:28;;;;;;;1.00;0.38;;;;;;;;;;515810;28;1362;-71
2023/05/10 01:40:52;;;;;;;2.38;0.30;;;;;;;;;;513713;28;1405;-71
2023/05/10 01:41:21;;;;;;;1.45;0.40;;;;;;;;;;518181;28;1321;-72
2023/05/10 01:41:41;;;;;;;1.98;0.40;;;;;;;;;;518517;28;1515;-72
2023/05/10 01:41:57;;;;;;;1.77;0.40;;;;;;;;;;518547;28;1336;-71
2023/05/10 01:42:21;;;;;;;1.10;0.30;;;;;;;;;;518048;28;1266;-72
2023/05/10 01:42:40;;;;;;;1.17;0.28;;;;;;;;;;519191;27;1401;-71
2023/05/10 01:43:00;;;;;;;0.63;0.20;;;;;;;;;;519156;28;1609;-72
2023/05/10 01:43:22;;;;;;;0.40;0.20;;;;;;;;;;517158;28;1148;-72
2023/05/10 01:43:57;;;;;;;0.60;0.30;;;;;;;;;;516776;28;1309;-72
2023/05/10 01:44:25;;;;;;;1.10;0.20;;;;;;;;;;513655;28;1463;-72
2023/05/10 01:44:46;;;;;;;0.60;0.30;;;;;;;;;;517595;28;965;-72
2023/05/10 01:45:02;;;;;;;0.30;0.30;;;;;;;;;;518780;27;1420;-73
2023/05/10 01:45:27;;;;;;;0.55;0.30;;;;;;;;;;519819;27;1334;-72
2023/05/10 01:46:09;;;;;;;1.40;0.30;;;;;;;;;;517752;28;1546;-72
2023/05/10 01:46:30;;;;;;;1.00;0.30;;;;;;;;;;507063;28;1450;-72
2023/05/10 01:46:49;;;;;;;1.38;0.25;;;;;;;;;;515159;28;1208;-72
2023/05/10 01:47:11;;;;;;;1.63;0.30;;;;;;;;;;513908;28;1459;-72
2023/05/10 01:47:46;;;;;;;1.40;0.30;;;;;;;;;;515646;28;1128;-73
2023/05/10 01:48:05;;;;;;;0.35;0.30;;;;;;;;;;513890;28;1315;-72
2023/05/10 01:48:21;;;;;;;0.95;0.40;;;;;;;;;;513571;28;1394;-72
2023/05/10 01:48:46;;;;;;;1.77;0.38;;;;;;;;;;512780;28;1302;-72
2023/05/10 01:49:02;;;;;;;0.77;0.25;;;;;;;;;;515325;28;919;-72
2023/05/10 01:49:21;;;;;;;0.73;0.30;;;;;;;;;;513411;28;1203;-72
2023/05/10 01:49:49;;;;;;;0.40;0.25;;;;;;;;;;512780;28;1338;-72
2023/05/10 01:50:06;;;;;;;1.60;0.30;;;;;;;;;;513132;28;1212;-72
2023/05/10 01:50:28;;;;;;;1.55;0.30;;;;;;;;;;511791;28;1452;-72
2023/05/10 01:50:45;;;;;;;0.55;0.30;;;;;;;;;;514099;28;1473;-74
2023/05/10 01:51:00;;;;;;;0.60;0.20;;;;;;;;;;513500;28;1476;-72
2023/05/10 01:51:19;;;;;;;1.17;0.30;;;;;;;;;;516047;28;1068;-72